Check out our new PWSWeather beta!
PWSweather.com
Personal Weather Stations
Station Observations
IBAVARIA50
Munich, PlieningDE 85652

MunichPlieningDE 85652

Lat: 48.19916153, Lon: 11.79794312

Elevation: 504

Station Type: Davis Vantage Pro2

http://wetterstation-pliening.info

Latest ConditionsUpdated 7:35:15 AM GMT+01:01 Friday, Feb 21, 2020
Currently Today's Max Today's Min Today's Average
Temperature 37.5°F3.1°C 47.4°F8.6°C 37.4°F3.0°C 41.4°F5.2°C
Dew Point 30.3°F-0.9°C 39.8°F4.3°C 30.3°F-0.9°C 34.3°F1.3°C
Winds 5.0 mph WSW8.0 kmh WSW 36.0 mph -57.9 kmh - - 13.6 mph 21.9 kmh
Wind Gusts 14.0 mph22.5 kmh 40.0 mph64.4 kmh - -
Humidity 75% 87% 69% 76%
Pressure 30.32 in1026.8 mb 30.32 in1026.8 mb 30.02 in1016.6 mb -
Precipitation - 0.05 in1.3 mm - -
Hour Temp Dew Point Humidity Winds Wind Gusts Pressure Precip Precip Rate Daily Precip Total
07:35 AM 37.5°F3.1°C 30.3°F-0.9°C 75% 5.0 mph WSW8.0 kmh WSW 14.0 mph22.5 kmh 30.32 in1026.8 mb 0.00 in0.0 mm 0.00 in0.0 mm 0.05 in1.3 mm
07:30 AM 37.5°F3.1°C 30.6°F-0.8°C 76% 4.0 mph SW6.4 kmh SW 11.0 mph17.7 kmh 30.32 in1026.8 mb 0.00 in0.0 mm 0.00 in0.0 mm 0.05 in1.3 mm
07:25 AM 37.7°F3.2°C 30.8°F-0.7°C 76% 5.0 mph WSW8.0 kmh WSW 13.0 mph20.9 kmh 30.32 in1026.8 mb 0.00 in0.0 mm 0.00 in0.0 mm 0.05 in1.3 mm
07:20 AM 37.7°F3.2°C 30.8°F-0.7°C 76% 5.0 mph SW8.0 kmh SW 12.0 mph19.3 kmh 30.32 in1026.8 mb 0.00 in0.0 mm 0.00 in0.0 mm 0.05 in1.3 mm
07:15 AM 37.9°F3.3°C 31.0°F-0.6°C 76% 10.0 mph WSW16.1 kmh WSW 15.0 mph24.1 kmh 30.31 in1026.4 mb 0.00 in0.0 mm 0.00 in0.0 mm 0.05 in1.3 mm
07:10 AM 37.9°F3.3°C 30.6°F-0.8°C 75% 7.0 mph WSW11.3 kmh WSW 16.0 mph25.7 kmh 30.31 in1026.4 mb 0.00 in0.0 mm 0.00 in0.0 mm 0.05 in1.3 mm
07:05 AM 38.0°F3.3°C 30.7°F-0.7°C 75% 8.0 mph W12.9 kmh W 16.0 mph25.7 kmh 30.30 in1026.1 mb 0.00 in0.0 mm 0.00 in0.0 mm 0.05 in1.3 mm
07:00 AM 38.1°F3.4°C 30.8°F-0.7°C 75% 13.0 mph WNW20.9 kmh WNW 16.0 mph25.7 kmh 30.29 in1025.7 mb 0.00 in0.0 mm 0.00 in0.0 mm 0.05 in1.3 mm
06:55 AM 38.2°F3.4°C 30.9°F-0.6°C 75% 11.0 mph WSW17.7 kmh WSW 16.0 mph25.7 kmh 30.29 in1025.7 mb 0.00 in0.0 mm 0.00 in0.0 mm 0.05 in1.3 mm
06:50 AM 38.3°F3.5°C 30.7°F-0.7°C 74% 14.0 mph WSW22.5 kmh WSW 17.0 mph27.4 kmh 30.29 in1025.7 mb 0.00 in0.0 mm 0.00 in0.0 mm 0.05 in1.3 mm
06:45 AM 38.3°F3.5°C 30.7°F-0.7°C 74% 9.0 mph W14.5 kmh W 20.0 mph32.2 kmh 30.29 in1025.7 mb 0.00 in0.0 mm 0.00 in0.0 mm 0.05 in1.3 mm
06:40 AM 38.2°F3.4°C 30.9°F-0.6°C 75% 10.0 mph SW16.1 kmh SW 16.0 mph25.7 kmh 30.28 in1025.4 mb 0.00 in0.0 mm 0.00 in0.0 mm 0.05 in1.3 mm
06:35 AM 38.0°F3.3°C 30.4°F-0.9°C 74% 16.0 mph W25.7 kmh W 19.0 mph30.6 kmh 30.28 in1025.4 mb 0.00 in0.0 mm 0.00 in0.0 mm 0.05 in1.3 mm
06:30 AM 38.0°F3.3°C 30.7°F-0.7°C 75% 5.0 mph W8.0 kmh W 18.0 mph29.0 kmh 30.28 in1025.4 mb 0.00 in0.0 mm 0.00 in0.0 mm 0.05 in1.3 mm
06:25 AM 37.9°F3.3°C 30.6°F-0.8°C 75% 13.0 mph WSW20.9 kmh WSW 18.0 mph29.0 kmh 30.28 in1025.4 mb 0.00 in0.0 mm 0.00 in0.0 mm 0.05 in1.3 mm
06:20 AM 37.8°F3.2°C 30.5°F-0.8°C 75% 9.0 mph SW14.5 kmh SW 17.0 mph27.4 kmh 30.27 in1025.1 mb 0.00 in0.0 mm 0.00 in0.0 mm 0.05 in1.3 mm
06:15 AM 37.7°F3.2°C 30.8°F-0.7°C 76% 7.0 mph WSW11.3 kmh WSW 16.0 mph25.7 kmh 30.26 in1024.7 mb 0.00 in0.0 mm 0.00 in0.0 mm 0.05 in1.3 mm
06:10 AM 37.9°F3.3°C 31.0°F-0.6°C 76% 9.0 mph WSW14.5 kmh WSW 19.0 mph30.6 kmh 30.26 in1024.7 mb 0.00 in0.0 mm 0.00 in0.0 mm 0.05 in1.3 mm
06:05 AM 37.9°F3.3°C 30.6°F-0.8°C 75% 12.0 mph WSW19.3 kmh WSW 20.0 mph32.2 kmh 30.26 in1024.7 mb 0.00 in0.0 mm 0.00 in0.0 mm 0.05 in1.3 mm
06:00 AM 38.0°F3.3°C 31.1°F-0.5°C 76% 16.0 mph WSW25.7 kmh WSW 19.0 mph30.6 kmh 30.25 in1024.4 mb 0.00 in0.0 mm 0.00 in0.0 mm 0.05 in1.3 mm
05:55 AM 38.0°F3.3°C 31.1°F-0.5°C 76% 19.0 mph W30.6 kmh W 23.0 mph37.0 kmh 30.24 in1024.0 mb 0.00 in0.0 mm 0.00 in0.0 mm 0.05 in1.3 mm
05:50 AM 38.0°F3.3°C 31.1°F-0.5°C 76% 15.0 mph W24.1 kmh W 24.0 mph38.6 kmh 30.23 in1023.7 mb 0.00 in0.0 mm 0.00 in0.0 mm 0.05 in1.3 mm
05:45 AM 38.0°F3.3°C 31.4°F-0.3°C 77% 12.0 mph WNW19.3 kmh WNW 26.0 mph41.8 kmh 30.23 in1023.7 mb 0.00 in0.0 mm 0.00 in0.0 mm 0.05 in1.3 mm
05:40 AM 38.2°F3.4°C 31.3°F-0.4°C 76% 12.0 mph WSW19.3 kmh WSW 21.0 mph33.8 kmh 30.23 in1023.7 mb 0.00 in0.0 mm 0.00 in0.0 mm 0.05 in1.3 mm
05:35 AM 38.3°F3.5°C 31.7°F-0.2°C 77% 9.0 mph WSW14.5 kmh WSW 23.0 mph37.0 kmh 30.22 in1023.4 mb 0.00 in0.0 mm 0.00 in0.0 mm 0.05 in1.3 mm
05:30 AM 38.5°F3.6°C 31.6°F-0.2°C 76% 19.0 mph WSW30.6 kmh WSW 24.0 mph38.6 kmh 30.21 in1023.0 mb 0.00 in0.0 mm 0.00 in0.0 mm 0.05 in1.3 mm
05:25 AM 38.7°F3.7°C 31.7°F-0.2°C 76% 14.0 mph NW22.5 kmh NW 24.0 mph38.6 kmh 30.20 in1022.7 mb 0.00 in0.0 mm 0.00 in0.0 mm 0.05 in1.3 mm
05:20 AM 38.8°F3.8°C 31.8°F-0.1°C 76% 14.0 mph W22.5 kmh W 27.0 mph43.5 kmh 30.20 in1022.7 mb 0.00 in0.0 mm 0.00 in0.0 mm 0.05 in1.3 mm
05:15 AM 38.9°F3.8°C 31.9°F-0.1°C 76% 19.0 mph NW30.6 kmh NW 26.0 mph41.8 kmh 30.20 in1022.7 mb 0.00 in0.0 mm 0.00 in0.0 mm 0.05 in1.3 mm
05:10 AM 39.1°F3.9°C 32.1°F0.1°C 76% 19.0 mph WNW30.6 kmh WNW 30.0 mph48.3 kmh 30.19 in1022.4 mb 0.00 in0.0 mm 0.00 in0.0 mm 0.05 in1.3 mm
05:05 AM 39.3°F4.1°C 32.7°F0.4°C 77% 12.0 mph W19.3 kmh W 23.0 mph37.0 kmh 30.19 in1022.4 mb 0.00 in0.0 mm 0.00 in0.0 mm 0.05 in1.3 mm
05:00 AM 39.5°F4.2°C 32.5°F0.3°C 76% 18.0 mph SW29.0 kmh SW 24.0 mph38.6 kmh 30.17 in1021.7 mb 0.00 in0.0 mm 0.00 in0.0 mm 0.05 in1.3 mm
04:55 AM 39.6°F4.2°C 32.9°F0.5°C 77% 9.0 mph WSW14.5 kmh WSW 25.0 mph40.2 kmh 30.17 in1021.7 mb 0.00 in0.0 mm 0.00 in0.0 mm 0.05 in1.3 mm
04:50 AM 39.8°F4.3°C 33.1°F0.6°C 77% 13.0 mph W20.9 kmh W 23.0 mph37.0 kmh 30.17 in1021.7 mb 0.00 in0.0 mm 0.00 in0.0 mm 0.05 in1.3 mm
04:45 AM 40.0°F4.4°C 33.3°F0.7°C 77% 7.0 mph SW11.3 kmh SW 22.0 mph35.4 kmh 30.17 in1021.7 mb 0.00 in0.0 mm 0.00 in0.0 mm 0.05 in1.3 mm
04:40 AM 40.3°F4.6°C 33.3°F0.7°C 76% 16.0 mph WSW25.7 kmh WSW 25.0 mph40.2 kmh 30.16 in1021.3 mb 0.00 in0.0 mm 0.00 in0.0 mm 0.05 in1.3 mm
04:35 AM 40.6°F4.8°C 33.6°F0.9°C 76% 21.0 mph W33.8 kmh W 29.0 mph46.7 kmh 30.16 in1021.3 mb 0.00 in0.0 mm 0.00 in0.0 mm 0.05 in1.3 mm
04:30 AM 40.8°F4.9°C 33.5°F0.8°C 75% 16.0 mph WNW25.7 kmh WNW 27.0 mph43.5 kmh 30.15 in1021.0 mb 0.01 in0.3 mm 0.00 in0.0 mm 0.05 in1.3 mm
04:25 AM 41.1°F5.1°C 34.1°F1.2°C 76% 18.0 mph W29.0 kmh W 25.0 mph40.2 kmh 30.15 in1021.0 mb 0.03 in0.8 mm 0.00 in0.0 mm 0.05 in1.3 mm
04:20 AM 41.4°F5.2°C 34.0°F1.1°C 75% 16.0 mph WSW25.7 kmh WSW 33.0 mph53.1 kmh 30.14 in1020.7 mb 0.04 in1.0 mm 0.00 in0.0 mm 0.05 in1.3 mm
04:15 AM 41.8°F5.4°C 35.1°F1.7°C 77% 22.0 mph SW35.4 kmh SW 31.0 mph49.9 kmh 30.14 in1020.7 mb 0.04 in1.0 mm 0.00 in0.0 mm 0.05 in1.3 mm
04:10 AM 42.0°F5.6°C 35.3°F1.8°C 77% 28.0 mph NW45.1 kmh NW 34.0 mph54.7 kmh 30.13 in1020.3 mb 0.04 in1.0 mm 0.00 in0.0 mm 0.05 in1.3 mm
04:05 AM 42.0°F5.6°C 36.5°F2.5°C 81% 19.0 mph WSW30.6 kmh WSW 33.0 mph53.1 kmh 30.12 in1020.0 mb 0.04 in1.0 mm 0.00 in0.0 mm 0.05 in1.3 mm
04:00 AM 41.8°F5.4°C 37.6°F3.1°C 85% 16.0 mph WSW25.7 kmh WSW 25.0 mph40.2 kmh 30.12 in1020.0 mb 0.04 in1.0 mm 0.00 in0.0 mm 0.05 in1.3 mm
03:55 AM 41.7°F5.4°C 37.5°F3.1°C 85% 10.0 mph W16.1 kmh W 22.0 mph35.4 kmh 30.11 in1019.6 mb 0.04 in1.0 mm 0.00 in0.0 mm 0.05 in1.3 mm
03:50 AM 41.4°F5.2°C 37.5°F3.1°C 86% 11.0 mph WSW17.7 kmh WSW 27.0 mph43.5 kmh 30.11 in1019.6 mb 0.04 in1.0 mm 0.00 in0.0 mm 0.05 in1.3 mm
03:45 AM 40.8°F4.9°C 36.9°F2.7°C 86% 16.0 mph SW25.7 kmh SW 24.0 mph38.6 kmh 30.10 in1019.3 mb 0.04 in1.0 mm 0.00 in0.0 mm 0.05 in1.3 mm
03:40 AM 40.0°F4.4°C 36.4°F2.4°C 87% 14.0 mph WSW22.5 kmh WSW 26.0 mph41.8 kmh 30.11 in1019.6 mb 0.04 in1.0 mm 0.00 in0.0 mm 0.05 in1.3 mm
03:35 AM 39.3°F4.1°C 35.4°F1.9°C 86% 11.0 mph SW17.7 kmh SW 28.0 mph45.1 kmh 30.10 in1019.3 mb 0.04 in1.0 mm 0.12 in3.0 mm 0.05 in1.3 mm
03:30 AM 39.8°F4.3°C 34.7°F1.5°C 82% 18.0 mph WSW29.0 kmh WSW 38.0 mph61.2 kmh 30.11 in1019.6 mb 0.03 in0.8 mm 0.24 in6.1 mm 0.04 in1.0 mm
03:25 AM 44.8°F7.1°C 38.3°F3.5°C 78% 28.0 mph W45.1 kmh W 40.0 mph64.4 kmh 30.10 in1019.3 mb 0.01 in0.3 mm 0.12 in3.0 mm 0.02 in0.5 mm
03:20 AM 45.8°F7.7°C 39.3°F4.1°C 78% 13.0 mph WSW20.9 kmh WSW 33.0 mph53.1 kmh 30.07 in1018.3 mb 0.00 in0.0 mm 0.00 in0.0 mm 0.01 in0.3 mm
03:15 AM 46.0°F7.8°C 38.8°F3.8°C 76% 13.0 mph SSW20.9 kmh SSW 32.0 mph51.5 kmh 30.05 in1017.6 mb 0.00 in0.0 mm 0.00 in0.0 mm 0.01 in0.3 mm
03:10 AM 46.1°F7.8°C 38.9°F3.8°C 76% 21.0 mph WSW33.8 kmh WSW 29.0 mph46.7 kmh 30.05 in1017.6 mb 0.00 in0.0 mm 0.00 in0.0 mm 0.01 in0.3 mm
03:05 AM 46.2°F7.9°C 39.0°F3.9°C 76% 16.0 mph W25.7 kmh W 32.0 mph51.5 kmh 30.05 in1017.6 mb 0.01 in0.3 mm 0.00 in0.0 mm 0.01 in0.3 mm
03:00 AM 46.3°F7.9°C 38.8°F3.8°C 75% 21.0 mph W33.8 kmh W 34.0 mph54.7 kmh 30.04 in1017.3 mb 0.01 in0.3 mm 0.00 in0.0 mm 0.01 in0.3 mm
02:55 AM 46.6°F8.1°C 39.1°F3.9°C 75% 30.0 mph SSW48.3 kmh SSW 38.0 mph61.2 kmh 30.03 in1016.9 mb 0.01 in0.3 mm 0.00 in0.0 mm 0.01 in0.3 mm
02:50 AM 46.6°F8.1°C 39.1°F3.9°C 75% 28.0 mph SW45.1 kmh SW 35.0 mph56.3 kmh 30.03 in1016.9 mb 0.01 in0.3 mm 0.00 in0.0 mm 0.01 in0.3 mm
02:45 AM 46.4°F8.0°C 39.2°F4.0°C 76% 21.0 mph WSW33.8 kmh WSW 32.0 mph51.5 kmh 30.04 in1017.3 mb 0.01 in0.3 mm 0.00 in0.0 mm 0.01 in0.3 mm
02:40 AM 46.3°F7.9°C 39.4°F4.1°C 77% 23.0 mph SW37.0 kmh SW 30.0 mph48.3 kmh 30.04 in1017.3 mb 0.01 in0.3 mm 0.00 in0.0 mm 0.01 in0.3 mm
02:35 AM 46.3°F7.9°C 39.8°F4.3°C 78% 18.0 mph SSW29.0 kmh SSW 27.0 mph43.5 kmh 30.04 in1017.3 mb 0.01 in0.3 mm 0.00 in0.0 mm 0.01 in0.3 mm
02:30 AM 46.3°F7.9°C 39.8°F4.3°C 78% 14.0 mph SW22.5 kmh SW 25.0 mph40.2 kmh 30.04 in1017.3 mb 0.01 in0.3 mm 0.00 in0.0 mm 0.01 in0.3 mm
02:25 AM 46.4°F8.0°C 39.5°F4.2°C 77% 16.0 mph W25.7 kmh W 33.0 mph53.1 kmh 30.04 in1017.3 mb 0.01 in0.3 mm 0.00 in0.0 mm 0.01 in0.3 mm
02:20 AM 46.3°F7.9°C 39.8°F4.3°C 78% 17.0 mph SW27.4 kmh SW 37.0 mph59.5 kmh 30.04 in1017.3 mb 0.01 in0.3 mm 0.00 in0.0 mm 0.01 in0.3 mm
02:15 AM 46.3°F7.9°C 39.8°F4.3°C 78% 36.0 mph W57.9 kmh W 37.0 mph59.5 kmh 30.04 in1017.3 mb 0.01 in0.3 mm 0.00 in0.0 mm 0.01 in0.3 mm
02:10 AM 46.6°F8.1°C 39.7°F4.3°C 77% 27.0 mph W43.5 kmh W 30.0 mph48.3 kmh 30.04 in1017.3 mb 0.01 in0.3 mm 0.12 in3.0 mm 0.01 in0.3 mm
02:05 AM 47.0°F8.3°C 39.1°F3.9°C 74% 17.0 mph WSW27.4 kmh WSW 31.0 mph49.9 kmh 30.04 in1017.3 mb 0.00 in0.0 mm 0.00 in0.0 mm 0.00 in0.0 mm
02:00 AM 47.1°F8.4°C 38.8°F3.8°C 73% 18.0 mph SW29.0 kmh SW 24.0 mph38.6 kmh 30.05 in1017.6 mb 0.00 in0.0 mm 0.00 in0.0 mm 0.00 in0.0 mm
01:55 AM 47.2°F8.4°C 38.6°F3.7°C 72% 15.0 mph WSW24.1 kmh WSW 27.0 mph43.5 kmh 30.04 in1017.3 mb 0.00 in0.0 mm 0.00 in0.0 mm 0.00 in0.0 mm
01:50 AM 47.4°F8.6°C 38.1°F3.4°C 70% 20.0 mph WSW32.2 kmh WSW 31.0 mph49.9 kmh 30.04 in1017.3 mb 0.00 in0.0 mm 0.00 in0.0 mm 0.00 in0.0 mm
01:45 AM 47.4°F8.6°C 37.7°F3.2°C 69% 14.0 mph WSW22.5 kmh WSW 26.0 mph41.8 kmh 30.03 in1016.9 mb 0.00 in0.0 mm 0.00 in0.0 mm 0.00 in0.0 mm
01:40 AM 47.0°F8.3°C 37.3°F2.9°C 69% 15.0 mph W24.1 kmh W 26.0 mph41.8 kmh 30.03 in1016.9 mb 0.00 in0.0 mm 0.00 in0.0 mm 0.00 in0.0 mm
01:35 AM 46.9°F8.3°C 37.2°F2.9°C 69% 19.0 mph W30.6 kmh W 22.0 mph35.4 kmh 30.02 in1016.6 mb 0.00 in0.0 mm 0.00 in0.0 mm 0.00 in0.0 mm
01:30 AM 46.5°F8.1°C 37.2°F2.9°C 70% 19.0 mph WSW30.6 kmh WSW 23.0 mph37.0 kmh 30.03 in1016.9 mb 0.00 in0.0 mm 0.00 in0.0 mm 0.00 in0.0 mm
01:25 AM 46.0°F7.8°C 36.7°F2.6°C 70% 15.0 mph WSW24.1 kmh WSW 21.0 mph33.8 kmh 30.02 in1016.6 mb 0.00 in0.0 mm 0.00 in0.0 mm 0.00 in0.0 mm
01:20 AM 45.3°F7.4°C 36.4°F2.4°C 71% 12.0 mph SW19.3 kmh SW 21.0 mph33.8 kmh 30.03 in1016.9 mb 0.00 in0.0 mm 0.00 in0.0 mm 0.00 in0.0 mm
01:15 AM 45.0°F7.2°C 36.1°F2.3°C 71% 12.0 mph WSW19.3 kmh WSW 19.0 mph30.6 kmh 30.03 in1016.9 mb 0.00 in0.0 mm 0.00 in0.0 mm 0.00 in0.0 mm
01:10 AM 44.5°F6.9°C 35.6°F2.0°C 71% 7.0 mph SW11.3 kmh SW 16.0 mph25.7 kmh 30.04 in1017.3 mb 0.00 in0.0 mm 0.00 in0.0 mm 0.00 in0.0 mm
01:05 AM 43.8°F6.6°C 35.3°F1.8°C 72% 11.0 mph SW17.7 kmh SW 16.0 mph25.7 kmh 30.04 in1017.3 mb 0.00 in0.0 mm 0.00 in0.0 mm 0.00 in0.0 mm
01:00 AM 42.6°F5.9°C 34.9°F1.6°C 74% 7.0 mph SW11.3 kmh SW 16.0 mph25.7 kmh 30.05 in1017.6 mb 0.00 in0.0 mm 0.00 in0.0 mm 0.00 in0.0 mm
12:55 AM 41.4°F5.2°C 34.0°F1.1°C 75% 5.0 mph WSW8.0 kmh WSW 9.0 mph14.5 kmh 30.05 in1017.6 mb 0.00 in0.0 mm 0.00 in0.0 mm 0.00 in0.0 mm
12:50 AM 41.0°F5.0°C 33.3°F0.7°C 74% 6.0 mph SW9.7 kmh SW 12.0 mph19.3 kmh 30.05 in1017.6 mb 0.00 in0.0 mm 0.00 in0.0 mm 0.00 in0.0 mm
12:45 AM 40.7°F4.8°C 33.4°F0.8°C 75% 4.0 mph SW6.4 kmh SW 11.0 mph17.7 kmh 30.05 in1017.6 mb 0.00 in0.0 mm 0.00 in0.0 mm 0.00 in0.0 mm
12:40 AM 40.1°F4.5°C 32.8°F0.4°C 75% 6.0 mph WSW9.7 kmh WSW 11.0 mph17.7 kmh 30.05 in1017.6 mb 0.00 in0.0 mm 0.00 in0.0 mm 0.00 in0.0 mm
12:35 AM 39.6°F4.2°C 32.3°F0.2°C 75% 5.0 mph SW8.0 kmh SW 12.0 mph19.3 kmh 30.05 in1017.6 mb 0.00 in0.0 mm 0.00 in0.0 mm 0.00 in0.0 mm
12:30 AM 39.2°F4.0°C 31.9°F-0.1°C 75% 6.0 mph SW9.7 kmh SW 11.0 mph17.7 kmh 30.05 in1017.6 mb 0.00 in0.0 mm 0.00 in0.0 mm 0.00 in0.0 mm
12:25 AM 38.6°F3.7°C 31.7°F-0.2°C 76% 5.0 mph SW8.0 kmh SW 12.0 mph19.3 kmh 30.05 in1017.6 mb 0.00 in0.0 mm 0.00 in0.0 mm 0.00 in0.0 mm
12:20 AM 37.9°F3.3°C 31.3°F-0.4°C 77% 4.0 mph WSW6.4 kmh WSW 10.0 mph16.1 kmh 30.05 in1017.6 mb 0.00 in0.0 mm 0.00 in0.0 mm 0.00 in0.0 mm
12:15 AM 37.5°F3.1°C 30.9°F-0.6°C 77% 4.0 mph SW6.4 kmh SW 10.0 mph16.1 kmh 30.05 in1017.6 mb 0.00 in0.0 mm 0.00 in0.0 mm 0.00 in0.0 mm
12:10 AM 37.4°F3.0°C 30.8°F-0.7°C 77% 4.0 mph SSW6.4 kmh SSW 10.0 mph16.1 kmh 30.06 in1017.9 mb 0.00 in0.0 mm 0.00 in0.0 mm 0.00 in0.0 mm
12:05 AM 37.4°F3.0°C 30.8°F-0.7°C 77% 7.0 mph SSW11.3 kmh SSW 10.0 mph16.1 kmh 30.06 in1017.9 mb 0.00 in0.0 mm 0.00 in0.0 mm 0.00 in0.0 mm
12:00 AM 37.4°F3.0°C 30.8°F-0.7°C 77% 5.0 mph S8.0 kmh S 12.0 mph19.3 kmh 30.06 in1017.9 mb 0.00 in0.0 mm 0.00 in0.0 mm 0.00 in0.0 mm